CheckWX is a tool to help pilots better visualize weather data.  It is not intended as a substitute for an official pre-flight weather briefing.

04:51:34 UTC

KSPI TAF
Abraham Lincoln Capital Airport
Springfield, Illinois, USA
KSPI 260406Z 2604/2624 10008KT P6SM VCSH BKN025 FM260600 14007KT 6SM -SHRA VCTS OVC014CB FM261000 14007KT 3SM TSRA BR OVC006CB FM261700 20010KT P6SM VCSH BKN012 FM262100 18011KT P6SM BKN035

Aug-26@
04:00 UTC

Aug-26 @ 04:00 UTC

Aug-26@
06:00 UTC

Aug-26 @ 06:00 UTC

KSPI 260406Z 2604/2624 10008KT P6SM VCSH BKN025
Wind
  • 100° at 8 KTS
Cloud Levels
  • Broken at 2,500' AGL

Aug-26@
06:00 UTC

Aug-26 @ 06:00 UTC

Aug-26@
10:00 UTC

Aug-26 @ 10:00 UTC

FM260600 14007KT 6SM -SHRA VCTS OVC014CB

From

From Standard forecast or significant change

Wind
  • 140° at 7 KTS
Conditions
Light Rain, Area Thunderstorm
Cloud Levels
  • Overcast at 1,400' AGL

Aug-26@
10:00 UTC

Aug-26 @ 10:00 UTC

Aug-26@
17:00 UTC

Aug-26 @ 17:00 UTC

FM261000 14007KT 3SM TSRA BR OVC006CB

From

From Standard forecast or significant change

Wind
  • 140° at 7 KTS
Conditions
Thunderstorm, Rain, Mist
Cloud Levels
  • Overcast at 600' AGL

Aug-26@
17:00 UTC

Aug-26 @ 17:00 UTC

Aug-26@
21:00 UTC

Aug-26 @ 21:00 UTC

FM261700 20010KT P6SM VCSH BKN012

From

From Standard forecast or significant change

Wind
  • 200° at 10 KTS
Cloud Levels
  • Broken at 1,200' AGL

Aug-26@
21:00 UTC

Aug-26 @ 21:00 UTC

Aug-27@
00:00 UTC

Aug-27 @ 00:00 UTC

FM262100 18011KT P6SM BKN035

From

From Standard forecast or significant change

Wind
  • 180° at 11 KTS
Cloud Levels
  • Broken at 3,500' AGL